X  CloseMetar Aviation Weather Data     CYYC Calgary International

Temperature

-7°C Temperature

-8°C Dewpoint

93% Humidity



Wind

 8 KM/H

 5 MPH

 2 M/S

 4 KTS



170°
Due South
Current Conditions

Mist Mist
Pressure 1009.52 (hPa) - 29.81 (in)
Visibility 3 (mi) - 4.8 (km)
Airport
Airport-code CYYC

Location Calgary International 4 (km)

Metar:
CYYC 120045Z 17004KT 120V190 3SM BR OVC002 M07/M08 A2981 RMK ST8 SLP166

Time: 11-12-2019 17:45